createdAt,value
2022-10-31T00:01:18.982Z,145616.69
2022-10-31T00:03:46.647Z,145632.44
2022-10-31T00:06:13.755Z,145589.94
2022-10-31T00:08:40.776Z,145548.66
2022-10-31T00:11:11.222Z,145633.66
2022-10-31T00:13:38.357Z,145619.06
2022-10-31T00:16:05.971Z,145581.44
2022-10-31T00:18:32.988Z,145582.63
2022-10-31T00:21:04.409Z,145623.94
2022-10-31T00:23:32.027Z,145611.81
2022-10-31T00:26:03.274Z,145594.78
2022-10-31T00:28:31.349Z,145599.66
2022-10-31T00:31:03.181Z,145529.22
2022-10-31T00:33:30.335Z,145589.94
2022-10-31T00:35:57.466Z,145569.28
2022-10-31T00:38:24.492Z,145571.72
2022-10-31T00:40:51.574Z,145596.00
2022-10-31T00:43:18.570Z,145586.28
2022-10-31T00:45:45.563Z,145565.66
2022-10-31T00:48:12.798Z,145581.44
2022-10-31T00:50:40.049Z,145589.94
2022-10-31T00:53:07.387Z,145552.28
2022-10-31T00:55:34.553Z,145559.56
2022-10-31T00:58:02.021Z,145575.38
2022-10-31T01:00:29.617Z,145558.34
2022-10-31T01:02:57.311Z,145532.81
2022-10-31T01:05:24.654Z,145513.41
2022-10-31T01:07:51.723Z,145560.75
2022-10-31T01:10:19.094Z,145509.75
2022-10-31T01:12:49.217Z,145587.50
2022-10-31T01:15:20.525Z,145514.59
2022-10-31T01:17:48.404Z,145571.72
2022-10-31T01:20:16.953Z,145445.41
2022-10-31T01:22:43.965Z,145543.78
2022-10-31T01:25:11.059Z,145559.56
2022-10-31T01:27:38.279Z,145546.19
2022-10-31T01:30:08.298Z,145546.19
2022-10-31T01:32:35.296Z,145538.94
2022-10-31T01:35:02.371Z,145485.47
2022-10-31T01:37:29.496Z,145555.91
2022-10-31T01:39:56.547Z,145560.75
2022-10-31T01:42:23.901Z,145467.25
2022-10-31T01:44:55.979Z,145531.63
2022-10-31T01:47:33.061Z,145535.28
2022-10-31T01:50:04.769Z,145538.94
2022-10-31T01:52:43.383Z,145498.84
2022-10-31T01:55:21.992Z,145548.66
2022-10-31T01:57:52.870Z,145526.78
2022-10-31T02:00:21.934Z,145519.47
2022-10-31T02:02:51.088Z,145536.47
2022-10-31T02:05:25.726Z,145492.78
2022-10-31T02:08:14.578Z,145461.22
2022-10-31T02:10:44.033Z,145521.91
2022-10-31T02:13:13.860Z,145519.47
2022-10-31T02:15:50.259Z,145419.94
2022-10-31T02:18:18.485Z,145514.59
2022-10-31T02:20:54.551Z,145519.47
2022-10-31T02:23:49.461Z,145534.06
2022-10-31T02:26:32.605Z,145546.19
2022-10-31T02:29:22.913Z,145514.59
2022-10-31T02:32:18.679Z,145504.91
2022-10-31T02:34:57.885Z,145419.94
2022-10-31T02:37:38.733Z,145478.16
2022-10-31T02:40:23.552Z,145490.34
2022-10-31T02:43:32.235Z,145497.63
2022-10-31T02:46:05.858Z,145504.91
2022-10-31T02:48:39.746Z,145509.75
2022-10-31T02:51:09.159Z,145432.03
2022-10-31T02:53:38.329Z,145497.63
2022-10-31T02:56:16.332Z,145490.34
2022-10-31T02:59:14.524Z,145485.47
2022-10-31T03:02:00.346Z,145483.03
2022-10-31T03:04:53.340Z,145480.63
2022-10-31T03:07:33.916Z,145475.78
2022-10-31T03:10:06.939Z,145468.47
2022-10-31T03:12:34.823Z,145461.22
2022-10-31T03:15:18.764Z,145467.25
2022-10-31T03:17:57.618Z,145466.06
2022-10-31T03:20:32.169Z,145467.25
2022-10-31T03:23:01.909Z,145449.03
2022-10-31T03:25:31.659Z,145464.81
2022-10-31T03:28:03.552Z,145436.88
2022-10-31T03:30:34.604Z,145439.34
2022-10-31T03:33:04.480Z,145438.13
2022-10-31T03:35:35.818Z,145441.75
2022-10-31T03:38:07.624Z,145434.47
2022-10-31T03:40:38.694Z,145381.06
2022-10-31T03:43:11.369Z,145430.84
2022-10-31T03:45:44.997Z,145433.25
2022-10-31T03:48:14.525Z,145415.03
2022-10-31T03:50:51.540Z,145429.63
2022-10-31T03:53:46.460Z,145434.47
2022-10-31T03:56:29.082Z,145347.09
2022-10-31T03:58:59.246Z,145361.63
2022-10-31T04:01:32.026Z,145435.69
2022-10-31T04:04:00.984Z,145444.19
2022-10-31T04:06:28.756Z,145422.31
2022-10-31T04:09:00.541Z,145429.63
2022-10-31T04:11:32.335Z,145382.25
2022-10-31T04:14:19.401Z,145378.59
2022-10-31T04:16:46.639Z,145378.59
2022-10-31T04:19:14.025Z,145355.53
2022-10-31T04:21:44.166Z,145354.34
2022-10-31T04:24:12.059Z,145381.06
2022-10-31T04:26:39.476Z,145360.38
2022-10-31T04:29:06.780Z,145389.56
2022-10-31T04:31:33.787Z,145383.50
2022-10-31T04:34:00.772Z,145385.91
2022-10-31T04:36:27.988Z,145381.06
2022-10-31T04:38:55.012Z,145377.41
2022-10-31T04:41:37.666Z,145368.91
2022-10-31T04:44:14.994Z,145283.97
2022-10-31T04:46:42.177Z,145351.94
2022-10-31T04:49:10.217Z,145303.38
2022-10-31T04:51:37.747Z,145280.31
2022-10-31T04:54:05.320Z,145351.94
2022-10-31T04:56:35.176Z,145322.78
2022-10-31T04:59:06.992Z,145339.78
2022-10-31T05:01:54.111Z,145313.06
2022-10-31T05:04:28.659Z,145317.91
2022-10-31T05:06:55.664Z,145269.34
2022-10-31T05:09:22.693Z,145256.03
2022-10-31T05:11:49.651Z,145339.78
2022-10-31T05:14:40.041Z,145344.63
2022-10-31T05:17:27.287Z,145327.63
2022-10-31T05:20:15.935Z,145320.38
2022-10-31T05:23:04.337Z,145300.91
2022-10-31T05:25:31.475Z,145290.00
2022-10-31T05:28:00.363Z,145263.31
2022-10-31T05:30:31.101Z,145303.38
2022-10-31T05:32:59.863Z,145300.91
2022-10-31T05:35:45.863Z,145201.41
2022-10-31T05:38:36.030Z,145162.53
2022-10-31T05:41:11.533Z,145281.50
2022-10-31T05:43:41.801Z,145198.94
2022-10-31T05:46:08.896Z,145248.69
2022-10-31T05:49:02.872Z,145234.16
2022-10-31T05:51:48.970Z,145228.06
2022-10-31T05:54:16.327Z,145225.66
2022-10-31T05:56:45.739Z,145232.91
2022-10-31T05:59:12.909Z,145258.44
2022-10-31T06:01:40.836Z,145211.09
2022-10-31T06:04:19.851Z,145228.06
2022-10-31T06:06:46.927Z,145225.66
2022-10-31T06:09:13.971Z,145222.00
2022-10-31T06:11:43.865Z,145198.94
2022-10-31T06:14:25.775Z,145211.09
2022-10-31T06:16:57.851Z,145213.50
2022-10-31T06:19:43.726Z,145150.41
2022-10-31T06:22:14.184Z,145219.59
2022-10-31T06:24:41.153Z,145223.19
2022-10-31T06:27:27.701Z,145235.34
2022-10-31T06:29:55.288Z,145235.34
2022-10-31T06:32:32.561Z,145235.34
2022-10-31T06:34:59.601Z,145235.34
2022-10-31T06:37:26.902Z,145162.53
2022-10-31T06:40:00.259Z,145245.06
2022-10-31T06:42:27.239Z,145246.25
2022-10-31T06:44:54.438Z,145235.34
2022-10-31T06:48:15.456Z,145243.84
2022-10-31T06:50:44.355Z,145260.91
2022-10-31T06:53:15.317Z,145165.00
2022-10-31T06:55:43.020Z,145282.72
2022-10-31T06:58:11.540Z,145300.91
2022-10-31T07:00:40.544Z,145316.72
2022-10-31T07:03:12.220Z,145339.78
2022-10-31T07:05:39.354Z,145349.47
2022-10-31T07:08:09.638Z,145354.34
2022-10-31T07:10:40.526Z,145349.47
2022-10-31T07:13:14.848Z,145349.47
2022-10-31T07:15:51.379Z,145361.63
2022-10-31T07:18:18.384Z,145390.75
2022-10-31T07:20:45.773Z,145399.25
2022-10-31T07:23:13.261Z,145415.03
2022-10-31T07:25:43.519Z,145427.19
2022-10-31T07:28:16.268Z,145463.63
2022-10-31T07:30:54.145Z,145495.19
2022-10-31T07:33:22.868Z,145502.50
2022-10-31T07:36:08.730Z,145480.63
2022-10-31T07:38:35.991Z,145529.22
2022-10-31T07:41:05.204Z,145524.31
2022-10-31T07:43:38.100Z,145599.66
2022-10-31T07:46:30.718Z,145670.09
2022-10-31T07:49:36.300Z,145677.41
2022-10-31T07:52:21.958Z,145628.78
2022-10-31T07:55:01.037Z,145699.34
2022-10-31T07:57:31.918Z,145684.72
2022-10-31T08:00:01.665Z,145726.09
2022-10-31T08:02:30.481Z,145738.19
2022-10-31T08:05:17.557Z,145711.50
2022-10-31T08:08:17.633Z,145766.16
2022-10-31T08:10:45.097Z,145715.13
2022-10-31T08:13:14.284Z,145809.94
2022-10-31T08:15:45.396Z,145859.78
2022-10-31T08:18:15.945Z,145886.53
2022-10-31T08:20:44.323Z,145916.94
2022-10-31T08:23:12.830Z,145954.63
2022-10-31T08:25:40.027Z,145903.56
2022-10-31T08:28:09.613Z,145925.41
2022-10-31T08:30:38.836Z,145845.19
2022-10-31T08:33:24.277Z,145908.44
2022-10-31T08:36:09.640Z,145937.59
2022-10-31T08:39:01.653Z,145963.16
2022-10-31T08:41:30.340Z,146010.56
2022-10-31T08:43:58.660Z,145966.75
2022-10-31T08:46:25.942Z,146047.06
2022-10-31T08:48:53.804Z,146099.44
2022-10-31T08:51:21.473Z,146051.91
2022-10-31T08:53:52.537Z,146109.16
2022-10-31T08:56:34.611Z,146112.78
2022-10-31T08:59:04.749Z,146148.06
2022-10-31T09:01:52.377Z,146197.97
2022-10-31T09:04:19.660Z,146199.19
2022-10-31T09:07:07.900Z,146239.34
2022-10-31T09:09:33.781Z,146257.59
2022-10-31T09:12:01.319Z,146285.59
2022-10-31T09:14:46.708Z,146358.63
2022-10-31T09:17:31.051Z,146383.03
2022-10-31T09:20:28.474Z,146331.84
2022-10-31T09:23:00.709Z,146484.13
2022-10-31T09:25:29.668Z,146503.63
2022-10-31T09:28:19.181Z,146568.16
2022-10-31T09:30:52.604Z,146575.50
2022-10-31T09:33:39.528Z,146563.31
2022-10-31T09:36:36.895Z,146620.59
2022-10-31T09:39:05.185Z,146587.66
2022-10-31T09:42:02.554Z,146674.16
2022-10-31T09:45:08.348Z,146725.44
2022-10-31T09:47:52.714Z,146811.97
2022-10-31T09:50:57.401Z,146826.59
2022-10-31T09:53:50.349Z,146887.53
2022-10-31T09:56:23.826Z,146933.88
2022-10-31T09:58:59.053Z,146948.50
2022-10-31T10:01:46.974Z,146980.22
2022-10-31T10:04:40.231Z,146996.13
2022-10-31T10:07:37.690Z,147063.19
2022-10-31T10:10:42.048Z,147077.88
2022-10-31T10:13:55.761Z,147112.00
2022-10-31T10:17:01.868Z,147158.38
2022-10-31T10:19:40.778Z,147192.56
2022-10-31T10:22:15.475Z,147158.38
2022-10-31T10:25:14.866Z,147165.72
2022-10-31T10:27:50.953Z,147247.53
2022-10-31T10:30:42.216Z,147204.72
2022-10-31T10:33:23.665Z,147180.34
2022-10-31T10:35:56.622Z,147187.69
2022-10-31T10:38:29.641Z,147268.25
2022-10-31T10:40:59.079Z,147302.47
2022-10-31T10:43:35.436Z,147307.34
2022-10-31T10:46:30.393Z,147339.06
2022-10-31T10:49:07.769Z,147358.59
2022-10-31T10:52:07.526Z,147378.13
2022-10-31T10:54:59.265Z,147351.25
2022-10-31T10:57:47.974Z,147409.88
2022-10-31T11:00:23.713Z,147424.50
2022-10-31T11:02:51.596Z,147455.06
2022-10-31T11:05:31.084Z,147502.72
2022-10-31T11:07:58.151Z,147538.16
2022-10-31T11:10:25.516Z,147573.59
2022-10-31T11:13:16.785Z,147539.34
2022-10-31T11:16:06.974Z,147598.00
2022-10-31T11:18:38.985Z,147634.66
2022-10-31T11:21:06.793Z,147639.53
2022-10-31T11:23:33.894Z,147629.75
2022-10-31T11:26:05.689Z,147637.13
2022-10-31T11:28:35.777Z,147710.44
2022-10-31T11:31:09.652Z,147715.31
2022-10-31T11:33:45.457Z,147703.06
2022-10-31T11:36:28.513Z,147706.75
2022-10-31T11:38:56.081Z,147727.53
2022-10-31T11:41:32.114Z,147742.25
2022-10-31T11:43:59.127Z,147764.22
2022-10-31T11:46:35.298Z,147742.25
2022-10-31T11:49:03.644Z,147656.66
2022-10-31T11:51:34.328Z,147711.63
2022-10-31T11:54:04.035Z,147661.53
2022-10-31T11:56:43.384Z,147681.06
2022-10-31T11:59:22.606Z,147681.06
2022-10-31T12:01:51.745Z,147605.34
2022-10-31T12:04:19.470Z,147654.19
2022-10-31T12:06:48.369Z,147690.84
2022-10-31T12:09:22.959Z,147651.75
2022-10-31T12:12:18.461Z,147666.41
2022-10-31T12:15:08.839Z,147739.78
2022-10-31T12:17:49.856Z,147701.88
2022-10-31T12:20:34.494Z,147797.25
2022-10-31T12:23:19.074Z,147877.91
2022-10-31T12:26:09.803Z,147788.69
2022-10-31T12:28:55.169Z,147771.56
2022-10-31T12:31:40.281Z,147742.25
2022-10-31T12:34:22.178Z,147722.66
2022-10-31T12:36:51.921Z,147754.44
2022-10-31T12:39:24.952Z,147719.03
2022-10-31T12:42:04.420Z,147759.31
2022-10-31T12:44:59.257Z,147763.00
2022-10-31T12:47:49.676Z,147736.13
2022-10-31T12:50:32.614Z,147749.56
2022-10-31T12:56:10.860Z,147720.25
2022-10-31T12:58:48.047Z,147742.25
2022-10-31T13:01:25.125Z,147749.56
2022-10-31T13:03:55.889Z,147725.13
2022-10-31T13:06:30.104Z,147673.78
2022-10-31T13:09:02.517Z,147664.00
2022-10-31T13:11:38.688Z,147649.31
2022-10-31T13:14:20.978Z,147664.00
2022-10-31T13:16:49.030Z,147671.31
2022-10-31T13:19:28.683Z,147673.78
2022-10-31T13:22:06.518Z,147628.56
2022-10-31T13:24:41.424Z,147649.31
2022-10-31T13:27:42.920Z,147624.88
2022-10-31T13:30:19.767Z,147600.47
2022-10-31T13:32:58.849Z,147596.78
2022-10-31T13:35:42.357Z,147595.59
2022-10-31T13:38:23.447Z,147624.88
2022-10-31T13:40:54.939Z,147617.53
2022-10-31T13:43:27.951Z,147612.66
2022-10-31T13:45:56.629Z,147507.59
2022-10-31T13:48:26.566Z,147618.78
2022-10-31T13:50:58.593Z,147630.97
2022-10-31T13:53:44.831Z,147632.22
2022-10-31T13:56:19.541Z,147652.97
2022-10-31T13:58:58.809Z,147662.75
2022-10-31T14:01:26.690Z,147651.75
2022-10-31T14:04:20.725Z,147677.44
2022-10-31T14:06:59.939Z,147696.97
2022-10-31T14:09:29.670Z,147696.97
2022-10-31T14:11:59.871Z,147701.88
2022-10-31T14:14:33.813Z,147717.78
2022-10-31T14:17:01.871Z,147737.38
2022-10-31T14:19:28.897Z,147698.19
2022-10-31T14:21:55.984Z,147661.53
2022-10-31T14:24:25.999Z,147656.66
2022-10-31T14:26:56.572Z,147620.00
2022-10-31T14:29:27.720Z,147611.44
2022-10-31T14:32:12.037Z,147536.94
2022-10-31T14:34:42.712Z,147563.81
2022-10-31T14:37:31.457Z,147580.88
2022-10-31T14:40:22.832Z,147554.06
2022-10-31T14:43:10.045Z,147477.06
2022-10-31T14:46:01.175Z,147506.38
2022-10-31T14:48:44.454Z,147507.59
2022-10-31T14:51:18.647Z,147461.16
2022-10-31T14:53:55.741Z,147488.03
2022-10-31T14:56:28.404Z,147486.81
2022-10-31T14:58:57.639Z,147502.72
2022-10-31T15:01:30.703Z,147507.59
2022-10-31T15:04:24.560Z,147489.28
2022-10-31T15:07:05.969Z,147483.13
2022-10-31T15:09:36.273Z,147463.63
2022-10-31T15:12:32.403Z,147444.09
2022-10-31T15:15:17.677Z,147413.53
2022-10-31T15:17:50.016Z,147418.44
2022-10-31T15:20:27.183Z,147401.31
2022-10-31T15:22:59.223Z,147403.78
2022-10-31T15:25:31.187Z,147417.22
2022-10-31T15:27:58.427Z,147383.00
2022-10-31T15:30:28.098Z,147414.75
2022-10-31T15:32:58.595Z,147397.66
2022-10-31T15:35:29.479Z,147384.25
2022-10-31T15:37:58.953Z,147370.81
2022-10-31T15:40:27.381Z,147375.72
2022-10-31T15:43:01.817Z,147361.03
2022-10-31T15:45:31.145Z,147300.00
2022-10-31T15:48:03.161Z,147268.25
2022-10-31T15:50:41.511Z,147345.16
2022-10-31T15:53:22.071Z,147243.81
2022-10-31T15:56:02.330Z,147258.50
2022-10-31T15:58:31.245Z,147270.72
2022-10-31T16:01:01.149Z,147238.94
2022-10-31T16:03:33.009Z,147207.19
2022-10-31T16:06:05.710Z,147175.47
2022-10-31T16:08:36.501Z,147155.97
2022-10-31T16:11:13.494Z,147132.78
2022-10-31T16:13:56.759Z,147105.94
2022-10-31T16:16:39.953Z,147048.56
2022-10-31T16:19:19.025Z,147070.53
2022-10-31T16:21:48.743Z,147053.44
2022-10-31T16:24:18.545Z,147038.81
2022-10-31T16:26:54.708Z,147031.47
2022-10-31T16:29:33.894Z,146953.38
2022-10-31T16:32:01.106Z,146974.13
2022-10-31T16:34:28.149Z,146968.06
2022-10-31T16:36:55.129Z,146887.53
2022-10-31T16:39:22.444Z,146875.34
2022-10-31T16:41:53.265Z,146820.47
2022-10-31T16:44:24.279Z,146933.88
2022-10-31T16:47:14.639Z,146931.47
2022-10-31T16:49:43.291Z,146929.00
2022-10-31T16:52:10.570Z,146935.09
2022-10-31T16:54:38.110Z,146858.31
2022-10-31T16:57:06.698Z,146810.72
2022-10-31T16:59:35.023Z,146846.09
2022-10-31T17:02:04.584Z,146850.97
2022-10-31T17:04:31.773Z,146824.13
2022-10-31T17:06:58.866Z,146843.63
2022-10-31T17:09:25.830Z,146844.88
2022-10-31T17:11:54.089Z,146748.59
2022-10-31T17:14:21.948Z,146794.91
2022-10-31T17:16:49.214Z,146749.78
2022-10-31T17:19:16.619Z,146759.53
2022-10-31T17:21:43.736Z,146674.16
2022-10-31T17:24:15.219Z,146729.06
2022-10-31T17:26:43.446Z,146703.44
2022-10-31T17:29:10.518Z,146675.41
2022-10-31T17:31:39.117Z,146663.22
2022-10-31T17:34:07.135Z,146663.22
2022-10-31T17:36:35.322Z,146647.41
2022-10-31T17:39:05.332Z,146636.41
2022-10-31T17:41:32.369Z,146648.59
2022-10-31T17:43:59.957Z,146570.63
2022-10-31T17:46:28.277Z,146626.66
2022-10-31T17:48:55.451Z,146618.13
2022-10-31T17:51:22.523Z,146690.03
2022-10-31T17:53:49.495Z,146694.91
2022-10-31T17:56:16.518Z,146658.34
2022-10-31T17:58:43.806Z,146647.41
2022-10-31T18:01:14.882Z,146657.13
2022-10-31T18:03:42.373Z,146643.72
2022-10-31T18:06:10.791Z,146614.47
2022-10-31T18:08:39.983Z,146602.31
2022-10-31T18:11:17.744Z,146558.44
2022-10-31T18:13:44.814Z,146541.38
2022-10-31T18:16:14.897Z,146529.22
2022-10-31T18:18:42.465Z,146442.72
2022-10-31T18:21:09.659Z,146487.81
2022-10-31T18:23:36.826Z,146490.22
2022-10-31T18:26:03.979Z,146480.47
2022-10-31T18:28:31.032Z,146465.88
2022-10-31T18:30:59.808Z,146423.22
2022-10-31T18:33:27.170Z,146402.50
2022-10-31T18:35:54.519Z,146383.03
2022-10-31T18:38:21.697Z,146359.88
2022-10-31T18:40:48.850Z,146329.44
2022-10-31T18:43:15.899Z,146331.84
2022-10-31T18:45:47.828Z,146314.84
2022-10-31T18:48:17.195Z,146296.56
2022-10-31T18:50:44.620Z,146281.97
2022-10-31T18:53:11.716Z,146261.25
2022-10-31T18:55:43.900Z,146271.00
2022-10-31T18:58:14.447Z,146278.31
2022-10-31T19:00:41.572Z,146236.94
2022-10-31T19:03:08.670Z,146288.03
2022-10-31T19:05:35.700Z,146292.91
2022-10-31T19:08:02.912Z,146207.69
2022-10-31T19:10:29.919Z,146232.06
2022-10-31T19:12:56.955Z,146213.81
2022-10-31T19:15:23.964Z,146200.44
2022-10-31T19:17:51.025Z,146182.16
2022-10-31T19:20:18.090Z,146169.97
2022-10-31T19:22:45.117Z,146137.13
2022-10-31T19:25:12.262Z,146057.97
2022-10-31T19:27:39.444Z,146032.47
2022-10-31T19:30:07.196Z,146088.47
2022-10-31T19:32:34.197Z,146059.22
2022-10-31T19:35:01.276Z,146049.50
2022-10-31T19:37:28.889Z,146060.44
2022-10-31T19:39:55.872Z,146088.47
2022-10-31T19:42:24.208Z,146087.25
2022-10-31T19:44:51.213Z,146082.38
2022-10-31T19:47:18.268Z,146008.16
2022-10-31T19:49:45.241Z,146027.59
2022-10-31T19:52:12.220Z,146073.81
2022-10-31T19:54:39.190Z,146060.44
2022-10-31T19:57:06.218Z,146051.91
2022-10-31T19:59:38.963Z,145991.13
2022-10-31T20:02:06.847Z,146037.31
2022-10-31T20:04:33.852Z,145995.97
2022-10-31T20:07:00.850Z,146026.41
2022-10-31T20:09:27.828Z,146025.16
2022-10-31T20:11:54.850Z,145918.16
2022-10-31T20:14:21.823Z,145947.31
2022-10-31T20:16:48.841Z,146017.88
2022-10-31T20:19:15.804Z,146019.09
2022-10-31T20:21:42.941Z,145981.38
2022-10-31T20:24:10.689Z,145985.00
2022-10-31T20:26:40.519Z,145930.28
2022-10-31T20:29:08.157Z,145974.06
2022-10-31T20:31:36.499Z,145987.44
2022-10-31T20:34:03.794Z,145963.16
2022-10-31T20:36:31.155Z,145964.34
2022-10-31T20:38:58.694Z,145961.91
2022-10-31T20:41:26.367Z,145954.63
2022-10-31T20:43:53.519Z,145908.44
2022-10-31T20:46:25.108Z,145930.28
2022-10-31T20:48:53.641Z,145930.28
2022-10-31T20:51:25.690Z,145919.34
2022-10-31T20:53:53.984Z,145890.19
2022-10-31T20:56:23.453Z,145923.00
2022-10-31T20:58:51.000Z,145931.53
2022-10-31T21:01:29.178Z,145927.88
2022-10-31T21:03:58.329Z,145952.19
2022-10-31T21:06:25.966Z,145968.00
2022-10-31T21:08:53.814Z,145963.16
2022-10-31T21:11:22.807Z,145982.59
2022-10-31T21:13:50.711Z,145957.03
2022-10-31T21:16:20.394Z,146000.84
2022-10-31T21:18:51.756Z,145998.38
2022-10-31T21:21:32.240Z,145971.66
2022-10-31T21:24:05.677Z,146000.84
2022-10-31T21:26:36.223Z,146003.25
2022-10-31T21:29:05.273Z,145998.38
2022-10-31T21:31:34.619Z,145986.25
2022-10-31T21:34:01.771Z,145986.25
2022-10-31T21:36:28.825Z,145942.44
2022-10-31T21:38:56.136Z,145940.03
2022-10-31T21:41:24.683Z,145980.13
2022-10-31T21:43:54.262Z,145976.53
2022-10-31T21:46:23.915Z,145907.19
2022-10-31T21:48:50.906Z,145959.50
2022-10-31T21:51:24.069Z,145959.50
2022-10-31T21:54:10.791Z,145903.56
2022-10-31T21:56:38.811Z,145944.91
2022-10-31T21:59:06.327Z,145931.53
2022-10-31T22:01:34.767Z,145938.78
2022-10-31T22:04:02.193Z,145949.78
2022-10-31T22:06:32.354Z,145944.91
2022-10-31T22:09:01.388Z,145942.44
2022-10-31T22:11:28.888Z,145957.03
2022-10-31T22:13:58.119Z,145940.03
2022-10-31T22:16:27.291Z,145965.56
2022-10-31T22:18:56.657Z,145943.66
2022-10-31T22:21:26.672Z,145935.19
2022-10-31T22:23:56.726Z,145918.16
2022-10-31T22:26:24.656Z,145908.44
2022-10-31T22:28:53.899Z,145888.94
2022-10-31T22:31:22.279Z,145864.63
2022-10-31T22:33:50.341Z,145850.06
2022-10-31T22:36:20.464Z,145837.88
2022-10-31T22:38:47.779Z,145833.03
2022-10-31T22:41:26.192Z,145813.59
2022-10-31T22:43:54.533Z,145733.34
2022-10-31T22:46:26.980Z,145818.44
2022-10-31T22:49:14.840Z,145781.97
2022-10-31T22:51:43.076Z,145816.00
2022-10-31T22:54:16.017Z,145744.31
2022-10-31T22:56:43.207Z,145824.50
2022-10-31T22:59:15.170Z,145835.47
2022-10-31T23:01:44.672Z,145836.69
2022-10-31T23:06:44.326Z,145825.75
2022-10-31T23:09:14.565Z,145811.13
2022-10-31T23:11:41.932Z,145825.75
2022-10-31T23:14:16.699Z,145812.38
2022-10-31T23:16:43.667Z,145835.47
2022-10-31T23:19:22.619Z,145801.41
2022-10-31T23:22:02.280Z,145828.16
2022-10-31T23:24:37.709Z,145819.66
2022-10-31T23:27:19.103Z,145813.59
2022-10-31T23:29:54.376Z,145854.91
2022-10-31T23:32:27.354Z,145852.47
2022-10-31T23:34:56.855Z,145802.63
2022-10-31T23:37:26.853Z,145847.59
2022-10-31T23:39:54.369Z,145839.09
2022-10-31T23:42:22.287Z,145845.19
2022-10-31T23:44:49.695Z,145789.28
2022-10-31T23:47:17.409Z,145840.34
2022-10-31T23:49:44.406Z,145867.09
2022-10-31T23:52:12.022Z,145876.81
2022-10-31T23:54:39.790Z,145806.28
2022-10-31T23:57:07.065Z,145833.03
2022-10-31T23:59:34.110Z,145864.63
